CYCG

Details ICAO CYCG (YCG)
Name CASTLEGAR
Region Canada
Timezone America/Vancouver (UTC-8.0)
Plans Departing 15
Arriving 33
Stats Elevation 1,624 ft / 495 m (AMSL)
Location 49.296222° -117.632504°
Runways 1
Magnetic Variation 14.989° E
Sunrise 2017-12-16 15:41:43 UTC / 2017-12-16 07:41:43 Local
Sunset 2017-12-16 23:53:41 UTC / 2017-12-16 15:53:41 Local
Advertisement - Login to hide

Runways

ID Width Length Bearing (true) Bearing (mag) Surface Threshold Offset Overrun Length
15 150 ft / 46 m 5,301 ft / 1,616 m 169.02° 154.03° Asphalt 0 ft / 0 m 0 ft / 0 m
33 150 ft / 46 m 5,301 ft / 1,616 m 349.02° 334.03° Asphalt 0 ft / 0 m 0 ft / 0 m

Approach Navaids

Runway Type Ident Frequency Range Bearing (true) Bearing (mag) Slope Elevation
15 Localiser XCG 110.10 MHz 18 nm / 33 km 196.00° 181.01° - 1,695 ft / 517 m (AMSL)

Map

Weather


0- 5 10 15 20 25 30 35+ Temperature / ° C

Clouds and Precipitation
Forecast for 2017-12-17 06:00 UTC. Updated 2 hours ago

Ground ~20,000 ft ~40,000 ft Winds

METAR

Not found

TAF

TAF AMD CYCG 161906Z 1619/1701 VRB03KT P6SM FEW012 OVC020 TEMPO 1619/1621 BKN030 FM162100 19005KT P6SM BKN025 TEMPO 1621/1701 SCT030 RMK NXT FCST WILL BE ISSUED AT 171545Z

Frequencies

Unicom 122.10 MHz CTAF
Warning: Do not use this data for real-world aviation or navigation. No guarantee of current accuracy is given.